Time;durP1;ratioP1;P1;durP2;ratioP2;P2;SDS_P1;SDS_P2;PMS_P1;PMS_P2;Temp;Humidity;BMP_temperature;BMP_pressure;BME280_temperature;BME280_humidity;BME280_pressure;Samples;Min_cycle;Max_cycle;Signal;HPM_P1;HPM_P2
2021/06/18 00:01:56;;;;;;;6.80;6.20;;;;;;;24.36;49.13;157633.38;5079864;28;20437;-94
2021/06/18 00:04:32;;;;;;;6.40;5.90;;;;;;;24.34;48.77;157629.44;5079092;28;20429;-94
2021/06/18 00:07:07;;;;;;;6.03;5.60;;;;;;;24.25;49.12;157604.59;5078953;28;20911;-94
2021/06/18 00:09:43;;;;;;;6.20;5.70;;;;;;;24.20;49.59;157592.78;5096832;28;20445;-94
2021/06/18 00:12:18;;;;;;;5.67;5.27;;;;;;;24.17;49.29;157586.25;5096997;28;20465;-94
2021/06/18 00:14:57;;;;;;;6.10;5.60;;;;;;;24.16;49.23;157583.69;5078984;28;20428;-94
2021/06/18 00:17:34;;;;;;;6.13;5.57;;;;;;;24.15;49.42;157579.72;5078748;28;20437;-93
2021/06/18 00:20:11;;;;;;;6.03;5.43;;;;;;;24.13;49.62;157574.50;5078791;28;20768;-94
2021/06/18 00:22:46;;;;;;;6.20;5.70;;;;;;;24.06;49.53;157557.47;5078811;28;20854;-94
2021/06/18 00:25:22;;;;;;;6.33;5.73;;;;;;;24.09;49.63;157564.06;5063581;28;20429;-94
2021/06/18 00:27:57;;;;;;;6.17;5.57;;;;;;;24.10;49.76;157567.97;5078688;28;20449;-94
2021/06/18 00:30:33;;;;;;;6.50;6.00;;;;;;;24.09;49.57;157565.34;5063083;28;20417;-94
2021/06/18 00:33:10;;;;;;;6.27;5.77;;;;;;;24.06;50.04;157557.47;5079457;28;20461;-94
2021/06/18 00:35:46;;;;;;;6.90;6.30;;;;;;;23.99;50.46;157537.81;5078467;28;20430;-93
2021/06/18 00:38:21;;;;;;;6.57;5.77;;;;;;;24.01;50.11;157544.34;5077145;28;20445;-93
2021/06/18 00:40:57;;;;;;;6.53;6.03;;;;;;;23.95;50.44;157527.38;5096581;28;20406;-93
2021/06/18 00:43:32;;;;;;;7.77;6.30;;;;;;;23.92;50.68;157519.53;5078062;28;20464;-94
2021/06/18 00:46:08;;;;;;;6.93;6.10;;;;;;;23.86;50.75;157505.16;5078392;28;20787;-93
2021/06/18 00:48:45;;;;;;;7.10;6.23;;;;;;;23.81;50.93;157490.75;5078061;28;20970;-94
2021/06/18 00:51:20;;;;;;;6.60;5.80;;;;;;;23.79;51.41;157486.88;5078188;28;20441;-94
2021/06/18 00:53:56;;;;;;;7.33;6.17;;;;;;;23.74;51.35;157472.47;5095725;28;20426;-94
2021/06/18 00:56:32;;;;;;;6.60;6.00;;;;;;;23.73;51.58;157471.16;5063249;28;20429;-93
2021/06/18 00:59:08;;;;;;;6.80;6.20;;;;;;;23.67;51.79;157455.47;5078170;28;20440;-92
2021/06/18 01:01:43;;;;;;;7.00;6.40;;;;;;;23.68;51.99;157456.78;5077589;28;20472;-94
2021/06/18 01:04:22;;;;;;;6.63;6.07;;;;;;;23.65;51.92;157450.25;5096181;28;20425;-93
2021/06/18 01:07:02;;;;;;;7.63;6.93;;;;;;;23.59;52.49;157434.53;5078028;28;20434;-93
2021/06/18 01:09:43;;;;;;;6.90;6.27;;;;;;;23.52;52.36;157416.25;5077822;28;20473;-94
2021/06/18 01:12:20;;;;;;;6.93;6.33;;;;;;;23.48;52.70;157407.09;5062743;28;20474;-94
2021/06/18 01:15:05;;;;;;;8.13;6.93;;;;;;;23.44;52.42;157395.34;5077791;28;20433;-93
2021/06/18 01:17:46;;;;;;;6.80;6.23;;;;;;;23.40;52.59;157386.22;5077637;28;20437;-94
2021/06/18 01:20:45;;;;;;;6.03;5.63;;;;;;;23.37;52.39;157377.06;5077091;28;20923;-94
2021/06/18 01:23:27;;;;;;;6.70;6.10;;;;;;;23.34;52.06;157370.47;5095478;28;20453;-93
2021/06/18 01:26:05;;;;;;;6.80;6.20;;;;;;;23.31;52.40;157361.31;5077849;28;20760;-94
2021/06/18 01:28:47;;;;;;;6.90;6.30;;;;;;;23.29;52.81;157356.09;5077274;28;20445;-94
2021/06/18 01:31:24;;;;;;;7.50;6.90;;;;;;;23.26;53.14;157348.25;5077807;28;20916;-94
2021/06/18 01:34:01;;;;;;;8.43;7.67;;;;;;;23.25;53.13;157345.63;5077122;28;20425;-93
2021/06/18 01:36:37;;;;;;;6.63;6.03;;;;;;;23.16;53.54;157322.13;5094935;28;20402;-94
2021/06/18 01:39:13;;;;;;;7.80;7.13;;;;;;;23.14;53.55;157316.91;5078433;28;20437;-93
2021/06/18 01:41:50;;;;;;;7.30;6.60;;;;;;;23.12;53.72;157311.63;5077577;28;20438;-93
2021/06/18 01:44:28;;;;;;;7.13;6.53;;;;;;;23.08;54.25;157301.22;5077753;28;20884;-93
2021/06/18 01:47:05;;;;;;;7.10;6.50;;;;;;;23.04;53.70;157293.34;5077298;28;20445;-93
2021/06/18 01:49:41;;;;;;;7.23;6.63;;;;;;;22.96;53.94;157272.44;5076488;28;20653;-94
2021/06/18 01:52:18;;;;;;;6.60;6.10;;;;;;;22.92;54.20;157262.03;5094824;28;20429;-93
2021/06/18 01:54:54;;;;;;;7.20;6.60;;;;;;;22.88;54.56;157250.22;5077026;28;20461;-93
2021/06/18 01:57:31;;;;;;;7.43;6.80;;;;;;;22.87;54.02;157248.97;5076638;28;20441;-93
2021/06/18 02:00:09;;;;;;;7.50;6.80;;;;;;;22.92;53.59;157260.69;5077264;28;20425;-94
2021/06/18 02:02:51;;;;;;;8.63;7.37;;;;;;;22.87;53.70;157247.66;5061455;28;20444;-93
2021/06/18 02:05:27;;;;;;;7.70;7.00;;;;;;;22.87;53.72;157248.97;5094606;28;20405;-93
2021/06/18 02:08:02;;;;;;;7.10;6.50;;;;;;;22.87;53.92;157248.97;5076643;28;20864;-94
2021/06/18 02:10:42;;;;;;;6.50;6.00;;;;;;;22.86;53.87;157246.31;5077573;28;20468;-93
2021/06/18 02:13:18;;;;;;;7.57;6.87;;;;;;;22.83;54.45;157238.47;5077112;28;20477;-94
2021/06/18 02:15:56;;;;;;;8.53;7.57;;;;;;;22.75;55.03;157217.56;5061361;28;20441;-94
2021/06/18 02:18:32;;;;;;;8.50;7.70;;;;;;;22.70;55.18;157204.50;5094778;28;20421;-93
2021/06/18 02:21:08;;;;;;;7.93;7.23;;;;;;;22.67;55.48;157196.66;5076802;28;20437;-93
2021/06/18 02:23:44;;;;;;;8.13;7.43;;;;;;;22.65;55.62;157190.13;5076615;28;20445;-93
2021/06/18 02:26:20;;;;;;;10.07;7.50;;;;;;;22.57;55.92;157170.50;5076582;28;20433;-93
2021/06/18 02:28:56;;;;;;;8.63;7.20;;;;;;;22.60;56.15;157178.34;5076466;28;20434;-93
2021/06/18 02:31:34;;;;;;;7.70;7.00;;;;;;;22.55;56.51;157165.28;5094223;28;20437;-91
2021/06/18 02:34:11;;;;;;;8.20;7.53;;;;;;;22.50;56.21;157152.22;5077885;28;20920;-94
2021/06/18 02:36:47;;;;;;;7.70;7.10;;;;;;;22.43;56.26;157133.91;5076798;28;20433;-94
2021/06/18 02:39:23;;;;;;;8.53;7.83;;;;;;;22.38;56.55;157120.84;5076997;28;20437;-94
2021/06/18 02:41:59;;;;;;;8.40;6.90;;;;;;;22.37;56.82;157118.28;5061121;28;20519;-93
2021/06/18 02:44:35;;;;;;;8.03;7.33;;;;;;;22.34;56.73;157110.44;5044274;28;20452;-93
2021/06/18 02:47:15;;;;;;;8.40;7.17;;;;;;;22.31;57.66;157102.59;5076663;28;20450;-94
2021/06/18 02:49:55;;;;;;;8.70;7.60;;;;;;;22.25;57.34;157086.91;5076794;28;20555;-93
2021/06/18 02:52:36;;;;;;;7.83;7.20;;;;;;;22.18;58.01;157068.63;5060870;28;20441;-93
2021/06/18 02:55:14;;;;;;;9.80;7.80;;;;;;;22.10;58.45;157047.72;5075965;28;20536;-94
2021/06/18 02:57:56;;;;;;;9.17;8.27;;;;;;;22.02;58.69;157026.84;5076487;28;20433;-94
2021/06/18 03:00:32;;;;;;;8.63;7.87;;;;;;;21.97;58.98;157013.78;5095156;28;20437;-93
2021/06/18 03:03:10;;;;;;;8.10;7.43;;;;;;;21.98;59.33;157017.69;5098204;28;20425;-94
2021/06/18 03:05:47;;;;;;;9.83;8.70;;;;;;;21.94;59.97;157005.94;5080194;28;20761;-94
2021/06/18 03:08:26;;;;;;;8.50;7.70;;;;;;;21.93;59.94;157004.63;5080079;28;20433;-94
2021/06/18 03:11:02;;;;;;;8.17;7.50;;;;;;;21.91;60.35;156998.09;5080084;28;20457;-94
2021/06/18 03:13:41;;;;;;;8.90;8.00;;;;;;;21.97;59.64;157013.78;5079954;28;20453;-93
2021/06/18 03:16:17;;;;;;;7.90;7.30;;;;;;;22.17;58.83;157066.00;5080512;28;20434;-94
2021/06/18 03:18:54;;;;;;;8.20;7.40;;;;;;;22.23;57.55;157083.00;5079737;28;20437;-93
2021/06/18 03:21:32;;;;;;;8.50;7.80;;;;;;;22.26;57.32;157089.53;5079983;28;20433;-94
2021/06/18 03:24:08;;;;;;;12.17;7.10;;;;;;;22.31;57.21;157102.59;5098103;28;20786;-94
2021/06/18 03:26:44;;;;;;;7.87;7.20;;;;;;;22.34;56.69;157110.44;5079889;28;20425;-94
2021/06/18 03:29:20;;;;;;;8.57;7.73;;;;;;;22.38;57.28;157120.84;5079787;28;20413;-94
2021/06/18 03:31:56;;;;;;;8.30;7.70;;;;;;;22.43;56.94;157133.91;5079270;28;20500;-93
2021/06/18 03:34:33;;;;;;;8.60;7.67;;;;;;;22.44;56.82;157136.53;5097194;28;20433;-93
2021/06/18 03:37:09;;;;;;;7.63;6.83;;;;;;;22.58;55.88;157173.13;5096624;28;20528;-93
2021/06/18 03:39:47;;;;;;;7.60;6.93;;;;;;;22.47;56.79;157143.06;5097697;28;20401;-94
2021/06/18 03:42:24;;;;;;;8.70;7.90;;;;;;;22.36;57.86;157115.63;5098965;28;20429;-94
2021/06/18 03:45:00;;;;;;;8.20;7.60;;;;;;;22.20;57.97;157073.84;5097289;28;20789;-94
2021/06/18 03:47:38;;;;;;;8.00;7.30;;;;;;;22.18;58.50;157068.63;5097505;28;20432;-88
2021/06/18 03:50:19;;;;;;;7.70;7.00;;;;;;;22.19;58.12;157071.22;5097611;28;20453;-93
2021/06/18 03:52:55;;;;;;;8.17;7.47;;;;;;;22.17;57.86;157066.00;5095843;28;20923;-94
2021/06/18 03:55:30;;;;;;;8.10;7.50;;;;;;;22.17;58.03;157067.31;5096780;28;20433;-93
2021/06/18 03:58:06;;;;;;;9.60;8.80;;;;;;;22.22;58.05;157079.06;5097380;28;20468;-94
2021/06/18 04:00:43;;;;;;;8.03;7.33;;;;;;;22.31;57.18;157103.91;5080285;28;20459;-94
2021/06/18 04:03:20;;;;;;;11.90;8.07;;;;;;;22.43;57.87;157133.91;5097109;28;20900;-94
2021/06/18 04:06:01;;;;;;;8.80;8.00;;;;;;;22.42;59.24;157131.31;5096644;28;20421;-94
2021/06/18 04:08:37;;;;;;;8.17;7.40;;;;;;;22.50;59.15;157152.22;5096144;28;20433;-94
2021/06/18 04:11:13;;;;;;;8.87;8.07;;;;;;;22.83;58.50;157238.47;5096179;28;20785;-94
2021/06/18 04:13:48;;;;;;;8.00;7.37;;;;;;;23.28;56.97;157353.47;5079970;28;20437;-94
2021/06/18 04:16:24;;;;;;;9.80;8.43;;;;;;;23.73;56.09;157471.16;5096253;28;20421;-95
2021/06/18 04:19:00;;;;;;;10.70;8.37;;;;;;;24.04;55.04;157552.22;5095866;28;20919;-95
2021/06/18 04:21:41;;;;;;;8.30;7.50;;;;;;;24.47;54.30;157663.44;5095525;28;20464;-95
2021/06/18 04:24:16;;;;;;;8.70;8.00;;;;;;;25.01;52.50;157803.47;5097088;28;20433;-95
2021/06/18 04:26:52;;;;;;;9.10;8.37;;;;;;;25.49;51.84;157926.53;5096987;28;20405;-95
2021/06/18 04:29:27;;;;;;;9.13;8.43;;;;;;;25.98;50.30;158056.13;5096466;28;20425;-95
2021/06/18 04:32:03;;;;;;;16.30;9.67;;;;;;;26.27;49.75;158129.47;5101332;28;20529;-95
2021/06/18 04:34:38;;;;;;;10.13;9.23;;;;;;;26.24;49.81;158122.94;5080779;28;20445;-95
2021/06/18 04:37:15;;;;;;;10.07;9.27;;;;;;;26.24;49.22;158122.94;5078324;28;20449;-94
2021/06/18 04:39:58;;;;;;;8.00;7.40;;;;;;;26.16;50.16;158101.97;5096543;28;20431;-95
2021/06/18 04:42:45;;;;;;;9.30;8.40;;;;;;;26.57;48.45;158208.06;5095893;28;20461;-93
2021/06/18 04:45:21;;;;;;;8.77;8.07;;;;;;;26.77;49.24;158259.19;5078633;28;20535;-93
2021/06/18 04:47:58;;;;;;;8.90;8.20;;;;;;;27.25;47.62;158383.66;5077648;28;20440;-93
2021/06/18 04:50:33;;;;;;;9.03;8.20;;;;;;;27.55;47.53;158463.66;5096111;28;20453;-93
2021/06/18 04:53:11;;;;;;;8.30;7.50;;;;;;;27.76;47.09;158518.72;5078033;28;20441;-93
2021/06/18 04:55:46;;;;;;;8.53;7.83;;;;;;;27.92;46.02;158558.03;5062726;28;20437;-94
2021/06/18 04:58:22;;;;;;;7.43;6.73;;;;;;;28.20;45.99;158631.47;5077930;28;20820;-93
2021/06/18 05:00:58;;;;;;;7.80;6.67;;;;;;;28.36;45.28;158674.75;5077718;28;20461;-93
2021/06/18 05:03:33;;;;;;;7.70;7.10;;;;;;;28.47;45.58;158700.97;5077872;28;20777;-94
2021/06/18 05:06:09;;;;;;;7.40;6.80;;;;;;;28.57;45.28;158728.50;5077952;28;20516;-94
2021/06/18 05:08:46;;;;;;;8.17;7.53;;;;;;;28.71;45.07;158765.28;5077763;28;20445;-95
2021/06/18 05:11:22;;;;;;;7.83;7.23;;;;;;;28.87;44.71;158807.25;5077637;28;20464;-95
2021/06/18 05:13:58;;;;;;;8.20;7.50;;;;;;;28.88;44.97;158809.91;5077687;28;20433;-96
2021/06/18 05:16:34;;;;;;;8.10;7.50;;;;;;;28.97;45.21;158832.16;5077497;28;20437;-94
2021/06/18 05:19:10;;;;;;;8.20;7.50;;;;;;;28.96;45.11;158830.84;5095733;28;20441;-95
2021/06/18 05:21:45;;;;;;;8.17;7.47;;;;;;;28.95;44.63;158828.25;5077667;28;20437;-95
2021/06/18 05:24:22;;;;;;;7.40;6.80;;;;;;;29.01;44.74;158841.38;5076997;28;20430;-95
2021/06/18 05:26:58;;;;;;;8.40;7.70;;;;;;;28.97;44.59;158833.50;5077077;28;20437;-94
2021/06/18 05:29:35;;;;;;;7.40;6.80;;;;;;;29.48;43.71;158964.72;5077137;28;20436;-95
2021/06/18 05:32:11;;;;;;;7.30;6.70;;;;;;;29.49;43.52;158967.38;5079386;28;20469;-95
2021/06/18 05:34:46;;;;;;;7.93;7.10;;;;;;;29.82;41.95;159054.00;5094684;28;20441;-94
2021/06/18 05:37:22;;;;;;;7.20;6.60;;;;;;;30.38;40.96;159199.75;5094339;28;20465;-95
2021/06/18 05:39:59;;;;;;;6.43;5.83;;;;;;;30.56;40.62;159247.03;5094039;28;20520;-95
2021/06/18 05:42:35;;;;;;;6.70;6.10;;;;;;;31.04;40.56;159371.81;5094285;28;20833;-94
2021/06/18 05:45:11;;;;;;;7.80;7.10;;;;;;;31.03;40.24;159369.19;5094783;28;20418;-95
2021/06/18 05:47:47;;;;;;;7.47;6.33;;;;;;;30.97;40.28;159353.47;5095459;28;20429;-94
2021/06/18 05:50:22;;;;;;;6.83;6.23;;;;;;;31.01;39.76;159362.63;5094106;28;20461;-95
2021/06/18 05:52:58;;;;;;;6.03;5.53;;;;;;;31.42;39.24;159469.03;5095359;28;20433;-95
2021/06/18 05:55:35;;;;;;;7.13;5.90;;;;;;;31.33;39.93;159448.00;5093721;28;20437;-95
2021/06/18 05:58:11;;;;;;;6.07;5.47;;;;;;;31.83;38.81;159578.09;5093951;28;20453;-95
2021/06/18 06:00:46;;;;;;;6.93;6.33;;;;;;;32.10;38.46;159647.81;5094489;28;20445;-95
2021/06/18 06:03:22;;;;;;;6.37;5.87;;;;;;;32.21;38.39;159676.72;5095457;28;20440;-94
2021/06/18 06:05:58;;;;;;;6.43;5.83;;;;;;;32.07;38.36;159639.91;5094587;28;20394;-94
2021/06/18 06:08:34;;;;;;;6.50;6.00;;;;;;;32.18;38.92;159668.84;5093487;28;20934;-94
2021/06/18 06:11:11;;;;;;;7.10;6.40;;;;;;;32.14;39.36;159658.34;5094170;28;20456;-95
2021/06/18 06:13:46;;;;;;;6.47;5.87;;;;;;;32.02;39.08;159625.47;5094912;28;20425;-94
2021/06/18 06:16:22;;;;;;;7.13;6.53;;;;;;;32.32;38.97;159705.66;5093446;28;20539;-92
2021/06/18 06:18:58;;;;;;;6.17;5.67;;;;;;;32.31;39.16;159703.00;5093192;28;20452;-93
2021/06/18 06:21:33;;;;;;;6.50;5.90;;;;;;;32.36;38.46;159716.13;5093179;28;20441;-93
2021/06/18 06:24:09;;;;;;;7.80;7.07;;;;;;;31.96;40.00;159610.94;5094863;28;20437;-93
2021/06/18 06:26:46;;;;;;;8.97;6.90;;;;;;;31.93;39.84;159603.09;5093534;28;20429;-93
2021/06/18 06:29:21;;;;;;;7.43;6.83;;;;;;;32.49;39.74;159750.31;5093434;28;20437;-94
2021/06/18 06:31:57;;;;;;;7.63;6.93;;;;;;;32.20;39.84;159674.09;5092745;28;20474;-94
2021/06/18 06:34:32;;;;;;;7.30;6.73;;;;;;;33.03;39.31;159889.72;5077795;28;20433;-93
2021/06/18 06:37:08;;;;;;;6.47;5.90;;;;;;;33.03;39.24;159889.72;5098695;28;20440;-93
2021/06/18 06:39:43;;;;;;;9.00;8.23;;;;;;;32.75;41.16;159816.13;5098442;28;20413;-93
2021/06/18 06:42:20;;;;;;;10.80;9.90;;;;;;;32.45;41.23;159738.50;5098357;28;20516;-93
2021/06/18 06:44:55;;;;;;;10.53;9.43;;;;;;;32.11;42.49;159650.44;5080681;28;20445;-94
2021/06/18 06:47:31;;;;;;;9.50;8.60;;;;;;;32.16;41.85;159662.28;5080833;28;20764;-94
2021/06/18 06:50:07;;;;;;;8.90;8.20;;;;;;;32.30;41.37;159700.34;5080130;28;20437;-95
2021/06/18 06:52:43;;;;;;;8.43;7.80;;;;;;;32.72;39.30;159809.53;5080294;28;20907;-95
2021/06/18 06:55:19;;;;;;;8.90;8.20;;;;;;;32.92;39.66;159862.13;5080352;28;20405;-94
2021/06/18 06:57:56;;;;;;;9.50;8.50;;;;;;;33.06;40.88;159897.66;5064694;28;20452;-95
2021/06/18 07:00:31;;;;;;;12.93;9.67;;;;;;;33.09;39.58;159906.88;5080249;28;20528;-95
2021/06/18 07:03:07;;;;;;;9.53;8.60;;;;;;;32.93;40.42;159863.44;5080051;28;20437;-95
2021/06/18 07:05:42;;;;;;;10.03;9.23;;;;;;;32.98;40.84;159876.59;5080683;28;20436;-95
2021/06/18 07:08:19;;;;;;;9.80;8.80;;;;;;;32.91;40.48;159858.19;5080022;28;20449;-94
2021/06/18 07:10:55;;;;;;;9.83;8.93;;;;;;;32.80;41.11;159829.25;5080277;28;20866;-96
2021/06/18 07:13:32;;;;;;;11.90;10.40;;;;;;;32.83;40.26;159838.44;5084308;28;20445;-96
2021/06/18 07:16:08;;;;;;;15.80;10.07;;;;;;;32.81;40.01;159831.84;5080824;28;20449;-96
2021/06/18 07:18:44;;;;;;;8.83;8.13;;;;;;;33.52;39.37;160018.63;5080174;28;20791;-96
2021/06/18 07:21:19;;;;;;;10.83;9.93;;;;;;;33.17;39.94;159926.59;5080297;28;20815;-96
2021/06/18 07:23:55;;;;;;;12.23;10.27;;;;;;;33.08;40.39;159902.91;5080262;28;20476;-96
2021/06/18 07:26:31;;;;;;;10.10;9.30;;;;;;;33.06;40.03;159897.66;5080527;28;20428;-96
2021/06/18 07:29:07;;;;;;;9.90;9.00;;;;;;;32.97;40.33;159873.94;5098326;28;20424;-96
2021/06/18 07:31:43;;;;;;;10.63;9.67;;;;;;;33.00;40.54;159883.16;5079773;28;20522;-96
2021/06/18 07:34:19;;;;;;;10.20;9.27;;;;;;;32.80;41.16;159829.25;5080681;28;20464;-96
2021/06/18 07:36:54;;;;;;;9.53;8.73;;;;;;;32.84;40.54;159839.75;5080018;28;20433;-96
2021/06/18 07:39:30;;;;;;;9.77;8.87;;;;;;;32.61;41.77;159779.28;5097853;28;20737;-95
2021/06/18 07:42:06;;;;;;;10.30;9.40;;;;;;;32.47;41.01;159743.75;5080652;28;20915;-96
2021/06/18 07:44:43;;;;;;;9.90;9.20;;;;;;;32.75;41.26;159817.38;5080547;28;20512;-95
2021/06/18 07:47:18;;;;;;;10.37;9.47;;;;;;;33.16;40.25;159922.63;5081643;28;20440;-96
2021/06/18 07:49:54;;;;;;;9.50;8.60;;;;;;;33.18;39.71;159929.19;5080059;28;20461;-96
2021/06/18 07:52:30;;;;;;;9.37;8.53;;;;;;;33.17;40.03;159926.59;5080104;28;20464;-95
2021/06/18 07:55:09;;;;;;;10.03;9.03;;;;;;;32.70;39.60;159802.97;5097460;28;20749;-95
2021/06/18 07:57:45;;;;;;;9.53;8.70;;;;;;;32.60;40.66;159777.97;5079984;28;20830;-96
2021/06/18 08:00:23;;;;;;;10.53;9.47;;;;;;;33.17;40.04;159926.59;5097721;28;20414;-95
2021/06/18 08:02:59;;;;;;;10.33;9.30;;;;;;;33.12;39.68;159913.47;5079254;28;20457;-95
2021/06/18 08:05:34;;;;;;;10.40;9.40;;;;;;;33.51;38.90;160014.72;5079234;28;20544;-95
2021/06/18 08:08:12;;;;;;;12.40;9.20;;;;;;;33.26;38.83;159950.25;5097168;28;20437;-95
2021/06/18 08:10:47;;;;;;;9.93;9.13;;;;;;;33.13;38.75;159916.06;5079172;28;20493;-95
2021/06/18 08:13:23;;;;;;;10.20;9.40;;;;;;;33.25;37.87;159947.66;5078772;28;20433;-95
2021/06/18 08:16:00;;;;;;;10.47;9.53;;;;;;;33.38;37.58;159981.84;5078661;28;20481;-95
2021/06/18 08:18:37;;;;;;;10.70;8.90;;;;;;;34.10;37.34;160168.72;5078688;28;20437;-95
2021/06/18 08:21:12;;;;;;;9.70;8.70;;;;;;;33.68;37.81;160060.78;5079240;28;20429;-95
2021/06/18 08:23:48;;;;;;;9.07;8.27;;;;;;;33.75;37.67;160076.56;5078753;28;20437;-95
2021/06/18 08:26:23;;;;;;;10.17;9.30;;;;;;;34.15;38.01;160181.88;5096316;28;20409;-95
2021/06/18 08:28:59;;;;;;;10.83;8.83;;;;;;;34.43;36.77;160255.53;5078341;28;20547;-95
2021/06/18 08:31:36;;;;;;;9.50;8.80;;;;;;;34.26;37.15;160212.09;5078322;28;20461;-95
2021/06/18 08:34:11;;;;;;;11.57;10.20;;;;;;;34.69;37.12;160322.69;5078391;28;20444;-95
2021/06/18 08:36:47;;;;;;;9.10;8.40;;;;;;;35.02;36.42;160408.25;5078378;28;20845;-94
2021/06/18 08:39:23;;;;;;;9.90;9.10;;;;;;;34.95;35.67;160389.84;5078656;28;20437;-95
2021/06/18 08:41:58;;;;;;;9.70;8.90;;;;;;;34.58;35.99;160293.78;5078526;28;20937;-95
2021/06/18 08:44:34;;;;;;;10.50;9.50;;;;;;;35.27;35.78;160474.09;5062814;28;20468;-96
2021/06/18 08:47:11;;;;;;;10.17;9.10;;;;;;;35.31;36.60;160484.66;5095869;28;20836;-95
2021/06/18 08:49:46;;;;;;;9.80;8.90;;;;;;;35.52;36.54;160539.94;5078443;28;20499;-95
2021/06/18 08:52:22;;;;;;;10.30;9.30;;;;;;;35.34;35.73;160492.56;5078222;28;20475;-95
2021/06/18 08:54:58;;;;;;;9.87;9.07;;;;;;;34.80;37.07;160352.97;5095843;28;20832;-95
2021/06/18 08:57:34;;;;;;;10.33;9.33;;;;;;;35.36;35.63;160497.81;5077584;28;20441;-95
2021/06/18 09:00:10;;;;;;;10.63;9.83;;;;;;;35.47;35.15;160526.78;5077833;28;20432;-95
2021/06/18 09:02:47;;;;;;;10.13;9.43;;;;;;;34.84;35.86;160362.19;5077990;28;20449;-95
2021/06/18 09:05:23;;;;;;;10.20;9.40;;;;;;;34.32;36.61;160226.56;5077705;28;20436;-95
2021/06/18 09:07:59;;;;;;;11.47;9.17;;;;;;;35.30;35.80;160482.00;5077888;28;20452;-96
2021/06/18 09:10:36;;;;;;;11.20;10.10;;;;;;;35.29;35.98;160479.41;5095412;28;20445;-95
2021/06/18 09:13:14;;;;;;;10.37;9.57;;;;;;;34.99;36.75;160401.69;5077639;28;20424;-96
2021/06/18 09:15:52;;;;;;;10.63;9.60;;;;;;;34.84;36.93;160362.19;5077849;28;20460;-95
2021/06/18 09:18:33;;;;;;;10.23;9.40;;;;;;;35.54;35.45;160545.25;5077815;28;20448;-95
2021/06/18 09:21:20;;;;;;;11.03;10.00;;;;;;;36.02;35.03;160671.72;5095629;28;20778;-96
2021/06/18 09:23:57;;;;;;;11.00;10.10;;;;;;;36.37;34.71;160761.28;5077322;28;20472;-95
2021/06/18 09:26:34;;;;;;;11.27;10.17;;;;;;;36.00;34.87;160666.44;5095326;28;20476;-95
2021/06/18 09:29:11;;;;;;;10.57;9.77;;;;;;;36.03;34.74;160674.34;5077476;28;20794;-95
2021/06/18 09:31:49;;;;;;;10.13;9.40;;;;;;;36.00;34.86;160666.44;5076869;28;20460;-96
2021/06/18 09:34:40;;;;;;;10.90;10.20;;;;;;;35.52;35.01;160539.94;5062114;28;20503;-95
2021/06/18 09:37:21;;;;;;;11.03;10.13;;;;;;;35.69;35.94;160584.75;5077010;28;20432;-96
2021/06/18 09:40:11;;;;;;;10.80;9.73;;;;;;;35.55;35.73;160547.91;5060396;28;20429;-95
2021/06/18 09:43:09;;;;;;;11.10;10.10;;;;;;;35.24;36.12;160466.25;5076818;28;20436;-95
2021/06/18 09:45:47;;;;;;;10.60;9.70;;;;;;;35.81;34.99;160616.38;5077127;28;20778;-95
2021/06/18 09:48:23;;;;;;;11.43;10.60;;;;;;;35.85;34.87;160626.88;5077231;28;20448;-93
2021/06/18 09:51:01;;;;;;;11.70;10.70;;;;;;;35.98;34.25;160661.13;5094811;28;20503;-94
2021/06/18 09:53:37;;;;;;;12.80;11.70;;;;;;;36.00;35.60;160666.44;5078587;28;20960;-94
2021/06/18 09:56:14;;;;;;;12.17;10.87;;;;;;;35.13;35.07;160438.59;5077967;28;20441;-95
2021/06/18 09:58:49;;;;;;;13.00;11.90;;;;;;;34.51;36.60;160276.59;5095155;28;20429;-95
2021/06/18 10:01:28;;;;;;;11.97;10.77;;;;;;;34.43;37.00;160255.53;5095017;28;20409;-95
2021/06/18 10:04:07;;;;;;;11.90;10.80;;;;;;;34.18;37.33;160189.78;5076854;28;20441;-94
2021/06/18 10:06:43;;;;;;;11.40;10.50;;;;;;;34.11;37.32;160171.31;5077056;28;20598;-96
2021/06/18 10:09:19;;;;;;;11.20;10.20;;;;;;;34.79;35.48;160350.31;5076712;28;20421;-95
2021/06/18 10:11:55;;;;;;;12.20;11.20;;;;;;;34.48;36.01;160267.38;5076595;28;20468;-95
2021/06/18 10:14:30;;;;;;;11.47;10.53;;;;;;;34.61;35.79;160302.94;5061417;28;20432;-94
2021/06/18 10:17:09;;;;;;;10.50;9.67;;;;;;;34.69;35.45;160324.00;5077109;28;20771;-95
2021/06/18 10:19:48;;;;;;;14.23;10.93;;;;;;;34.92;35.26;160381.94;5076415;28;20931;-94
2021/06/18 10:22:26;;;;;;;11.53;10.63;;;;;;;34.74;35.52;160337.16;5076204;28;20432;-94
2021/06/18 10:25:04;;;;;;;12.97;12.07;;;;;;;34.91;34.40;160379.28;5094617;28;20519;-94
2021/06/18 10:27:42;;;;;;;11.30;10.10;;;;;;;34.85;35.71;160366.13;5094269;28;20409;-94
2021/06/18 10:30:30;;;;;;;10.70;9.70;;;;;;;34.45;37.02;160260.78;5076345;28;20959;-94
2021/06/18 10:33:38;;;;;;;10.90;9.93;;;;;;;34.74;35.21;160337.16;5085756;28;20464;-92
2021/06/18 10:36:23;;;;;;;10.90;10.10;;;;;;;34.45;34.44;160260.78;5092927;28;20453;-93
2021/06/18 10:39:11;;;;;;;8.27;7.57;;;;;;;34.41;31.69;160250.28;5092609;28;20433;-93
2021/06/18 10:41:48;;;;;;;9.80;9.10;;;;;;;34.18;35.03;160189.78;5094154;28;20437;-93
2021/06/18 10:44:45;;;;;;;10.47;9.60;;;;;;;34.03;35.80;160150.22;5093201;28;20440;-93
2021/06/18 10:47:43;;;;;;;10.73;9.77;;;;;;;34.05;35.27;160155.53;5094190;28;20421;-94
2021/06/18 10:50:49;;;;;;;9.90;9.20;;;;;;;33.88;34.84;160112.09;5093021;28;20444;-94
2021/06/18 10:53:25;;;;;;;10.43;9.53;;;;;;;34.19;35.00;160192.38;5094168;28;20890;-94
2021/06/18 10:56:02;;;;;;;9.23;8.50;;;;;;;33.95;33.92;160130.50;5092850;28;20534;-93
2021/06/18 10:59:06;;;;;;;10.07;9.27;;;;;;;34.19;34.93;160192.38;5094294;28;20414;-94
2021/06/18 11:01:41;;;;;;;9.40;8.60;;;;;;;34.65;33.30;160313.50;5093366;28;20437;-94
2021/06/18 11:04:36;;;;;;;9.50;8.60;;;;;;;34.39;34.79;160245.03;5094421;28;20437;-94
2021/06/18 11:07:22;;;;;;;10.57;9.57;;;;;;;33.62;33.75;160045.03;5092900;28;20433;-94
2021/06/18 11:09:57;;;;;;;9.93;9.20;;;;;;;33.16;35.98;159922.63;5092869;28;20437;-95
2021/06/18 11:12:42;;;;;;;10.20;9.30;;;;;;;33.06;36.09;159897.66;5093690;28;20456;-95
2021/06/18 11:15:36;;;;;;;9.27;8.47;;;;;;;33.27;34.48;159952.91;5092696;28;20445;-94
2021/06/18 11:18:15;;;;;;;9.40;8.10;;;;;;;33.27;34.14;159952.91;5093147;28;20438;-94
2021/06/18 11:20:52;;;;;;;8.50;7.80;;;;;;;33.37;34.11;159979.19;5092879;28;20506;-94
2021/06/18 11:23:32;;;;;;;7.47;6.80;;;;;;;33.42;33.04;159992.34;5096419;28;20437;-94
2021/06/18 11:26:09;;;;;;;9.17;8.17;;;;;;;32.71;33.41;159806.91;5097085;28;20437;-95
2021/06/18 11:28:50;;;;;;;8.40;7.70;;;;;;;32.84;33.49;159841.06;5096971;28;20441;-95
2021/06/18 11:31:50;;;;;;;7.53;6.83;;;;;;;33.52;31.21;160017.34;5097267;28;20504;-93
2021/06/18 11:34:28;;;;;;;7.50;6.90;;;;;;;33.36;32.67;159976.53;5097324;28;20465;-93
2021/06/18 11:37:03;;;;;;;8.80;7.97;;;;;;;32.83;32.89;159838.44;5096357;28;20437;-93
2021/06/18 11:39:41;;;;;;;8.27;7.53;;;;;;;33.03;32.56;159891.03;5080697;28;20445;-94
2021/06/18 11:42:16;;;;;;;8.13;7.43;;;;;;;32.79;31.98;159826.59;5097312;28;20421;-95
2021/06/18 11:44:56;;;;;;;8.40;7.70;;;;;;;32.75;32.54;159817.38;5096328;28;20447;-94
2021/06/18 11:47:34;;;;;;;8.33;7.73;;;;;;;32.94;33.24;159866.03;5096110;28;20437;-94
2021/06/18 11:50:10;;;;;;;7.70;7.20;;;;;;;33.19;32.57;159930.53;5095548;28;20441;-93
2021/06/18 11:52:46;;;;;;;8.00;7.30;;;;;;;33.56;32.41;160029.22;5096023;28;20544;-93
2021/06/18 11:55:28;;;;;;;7.30;6.70;;;;;;;33.37;31.15;159977.88;5096032;28;20441;-93
2021/06/18 11:58:04;;;;;;;6.73;6.13;;;;;;;33.03;30.73;159891.03;5097376;28;20748;-93
2021/06/18 12:00:41;;;;;;;6.97;6.37;;;;;;;33.03;31.61;159891.03;5080311;28;20862;-93
2021/06/18 12:03:16;;;;;;;7.27;6.67;;;;;;;33.30;31.65;159960.78;5095446;28;20806;-92
2021/06/18 12:05:53;;;;;;;7.33;6.50;;;;;;;33.13;30.53;159914.75;5095558;28;20444;-93
2021/06/18 12:08:28;;;;;;;7.90;7.30;;;;;;;32.75;31.73;159817.38;5096407;28;20429;-92
2021/06/18 12:11:14;;;;;;;7.30;6.73;;;;;;;32.95;32.12;159868.69;5096695;28;20445;-93